createdAt,value
2019-05-15T00:00:09.839Z,1.93
2019-05-15T00:02:38.839Z,2.23
2019-05-15T00:05:09.164Z,1.77
2019-05-15T00:07:39.091Z,2.23
2019-05-15T00:10:08.733Z,2.53
2019-05-15T00:12:39.384Z,1.90
2019-05-15T00:15:09.378Z,2.30
2019-05-15T00:17:39.223Z,2.23
2019-05-15T00:20:06.869Z,2.20
2019-05-15T00:22:34.960Z,2.20
2019-05-15T00:25:03.121Z,2.30
2019-05-15T00:27:31.463Z,2.00
2019-05-15T00:30:00.438Z,2.20
2019-05-15T00:32:29.015Z,2.10
2019-05-15T00:34:58.290Z,2.27
2019-05-15T00:37:28.832Z,2.40
2019-05-15T00:39:56.721Z,2.23
2019-05-15T00:42:28.453Z,2.60
2019-05-15T00:44:58.470Z,2.57
2019-05-15T00:47:28.631Z,2.30
2019-05-15T00:49:58.108Z,2.77
2019-05-15T00:52:28.314Z,2.40
2019-05-15T00:54:58.988Z,2.07
2019-05-15T00:57:28.352Z,2.47
2019-05-15T00:59:59.003Z,2.53
2019-05-15T01:02:28.623Z,2.57
2019-05-15T01:04:58.543Z,2.30
2019-05-15T01:07:28.186Z,2.37
2019-05-15T01:09:57.907Z,2.10
2019-05-15T01:12:26.340Z,2.50
2019-05-15T01:14:55.092Z,2.53
2019-05-15T01:17:23.320Z,2.10
2019-05-15T01:19:51.568Z,2.70
2019-05-15T01:22:19.997Z,2.60
2019-05-15T01:24:48.622Z,3.10
2019-05-15T01:27:18.407Z,2.30
2019-05-15T01:29:49.394Z,2.83
2019-05-15T01:32:19.098Z,2.50
2019-05-15T01:34:49.020Z,2.60
2019-05-15T01:37:18.893Z,2.33
2019-05-15T01:39:48.577Z,2.57
2019-05-15T01:42:18.641Z,2.80
2019-05-15T01:45:08.382Z,2.23
2019-05-15T01:47:38.575Z,2.77
2019-05-15T01:50:09.413Z,2.63
2019-05-15T01:52:39.009Z,2.80
2019-05-15T01:55:09.114Z,3.57
2019-05-15T01:57:38.347Z,3.10
2019-05-15T02:00:09.542Z,2.93
2019-05-15T02:02:38.957Z,3.07
2019-05-15T02:05:08.870Z,2.97
2019-05-15T02:07:39.122Z,3.20
2019-05-15T02:10:29.217Z,3.10
2019-05-15T02:12:58.764Z,3.40
2019-05-15T02:15:28.580Z,3.00
2019-05-15T02:17:58.811Z,3.90
2019-05-15T02:20:29.120Z,3.60
2019-05-15T02:22:59.102Z,3.30
2019-05-15T02:25:28.115Z,3.20
2019-05-15T02:27:58.712Z,3.23
2019-05-15T02:30:30.097Z,3.20
2019-05-15T02:32:59.038Z,3.27
2019-05-15T02:35:29.553Z,3.50
2019-05-15T02:37:59.822Z,3.50
2019-05-15T02:40:29.479Z,3.67
2019-05-15T02:42:59.131Z,3.47
2019-05-15T02:45:30.149Z,3.40
2019-05-15T02:47:59.649Z,3.50
2019-05-15T02:50:29.265Z,3.53
2019-05-15T02:53:00.463Z,3.53
2019-05-15T02:55:29.602Z,3.33
2019-05-15T02:57:59.089Z,3.50
2019-05-15T03:00:37.791Z,3.63
2019-05-15T03:03:00.212Z,3.70
2019-05-15T03:05:29.259Z,3.83
2019-05-15T03:07:59.333Z,3.10
2019-05-15T03:10:29.642Z,3.80
2019-05-15T03:13:00.133Z,3.93
2019-05-15T03:15:29.186Z,3.47
2019-05-15T03:18:00.449Z,3.70
2019-05-15T03:20:29.776Z,3.57
2019-05-15T03:22:59.731Z,4.20
2019-05-15T03:25:29.748Z,4.70
2019-05-15T03:27:59.541Z,4.40
2019-05-15T03:30:32.369Z,4.83
2019-05-15T03:33:03.974Z,5.13
2019-05-15T03:35:33.007Z,4.73
2019-05-15T03:37:59.891Z,4.43
2019-05-15T03:40:29.865Z,4.30
2019-05-15T03:42:59.438Z,4.13
2019-05-15T03:45:29.727Z,3.97
2019-05-15T03:47:59.498Z,4.10
2019-05-15T03:50:29.047Z,4.47
2019-05-15T03:52:58.824Z,4.20
2019-05-15T03:55:29.665Z,4.03
2019-05-15T03:57:59.150Z,4.17
2019-05-15T04:00:30.191Z,4.30
2019-05-15T04:02:59.032Z,4.50
2019-05-15T04:05:29.373Z,4.30
2019-05-15T04:07:59.819Z,4.13
2019-05-15T04:10:29.091Z,3.50
2019-05-15T04:13:00.070Z,4.03
2019-05-15T04:15:30.134Z,4.47
2019-05-15T04:18:00.305Z,3.83
2019-05-15T04:20:29.765Z,4.67
2019-05-15T04:23:00.450Z,4.03
2019-05-15T04:25:31.058Z,4.37
2019-05-15T04:28:01.112Z,4.43
2019-05-15T04:30:30.794Z,4.70
2019-05-15T04:33:00.194Z,4.80
2019-05-15T04:35:29.069Z,4.80
2019-05-15T04:37:59.775Z,4.70
2019-05-15T04:40:29.890Z,4.60
2019-05-15T04:42:59.309Z,4.27
2019-05-15T04:45:34.455Z,5.17
2019-05-15T04:47:58.877Z,4.97
2019-05-15T04:50:28.823Z,5.30
2019-05-15T04:52:59.283Z,5.33
2019-05-15T04:55:28.935Z,4.83
2019-05-15T04:57:59.145Z,4.77
2019-05-15T05:00:34.763Z,4.67
2019-05-15T05:03:03.182Z,5.00
2019-05-15T05:05:31.282Z,5.67
2019-05-15T05:07:59.797Z,5.10
2019-05-15T05:10:29.025Z,5.20
2019-05-15T05:12:59.133Z,5.23
2019-05-15T05:15:29.276Z,5.33
2019-05-15T05:17:58.541Z,5.50
2019-05-15T05:20:28.805Z,5.33
2019-05-15T05:22:58.404Z,5.20
2019-05-15T05:25:27.935Z,5.90
2019-05-15T05:28:21.034Z,4.80
2019-05-15T05:30:49.462Z,5.03
2019-05-15T05:33:18.585Z,5.07
2019-05-15T05:35:48.461Z,4.40
2019-05-15T05:38:19.217Z,5.23
2019-05-15T05:40:49.454Z,4.60
2019-05-15T05:43:18.942Z,4.80
2019-05-15T05:45:49.159Z,4.40
2019-05-15T05:48:18.667Z,4.90
2019-05-15T05:50:49.753Z,4.70
2019-05-15T05:53:17.971Z,4.27
2019-05-15T05:55:46.065Z,4.53
2019-05-15T05:58:14.405Z,4.70
2019-05-15T06:00:45.572Z,5.60
2019-05-15T06:03:14.334Z,4.67
2019-05-15T06:05:43.023Z,4.60
2019-05-15T06:08:11.119Z,4.60
2019-05-15T06:10:39.622Z,4.50
2019-05-15T06:13:08.666Z,4.20
2019-05-15T06:15:37.951Z,4.67
2019-05-15T06:18:08.289Z,4.93
2019-05-15T06:20:36.381Z,4.87
2019-05-15T06:23:05.167Z,4.80
2019-05-15T06:25:33.874Z,5.03
2019-05-15T06:28:03.620Z,4.87
2019-05-15T06:30:31.889Z,5.90
2019-05-15T06:33:08.524Z,4.40
2019-05-15T06:35:31.304Z,5.30
2019-05-15T06:37:59.781Z,4.10
2019-05-15T06:40:28.931Z,4.43
2019-05-15T06:42:59.378Z,4.17
2019-05-15T06:45:28.547Z,4.00
2019-05-15T06:47:58.278Z,4.00
2019-05-15T06:50:35.245Z,3.53
2019-05-15T06:53:03.499Z,3.50
2019-05-15T06:55:31.966Z,4.13
2019-05-15T06:58:00.123Z,4.10
2019-05-15T07:00:28.671Z,3.53
2019-05-15T07:02:58.434Z,3.20
2019-05-15T07:05:29.436Z,3.57
2019-05-15T07:07:58.514Z,3.00
2019-05-15T07:10:28.786Z,3.30
2019-05-15T07:12:58.538Z,3.77
2019-05-15T07:15:27.826Z,3.70
2019-05-15T07:17:58.052Z,3.23
2019-05-15T07:20:28.480Z,3.20
2019-05-15T07:22:58.601Z,2.70
2019-05-15T07:25:29.339Z,2.70
2019-05-15T07:27:58.106Z,2.60
2019-05-15T07:30:28.724Z,2.97
2019-05-15T07:32:58.527Z,3.10
2019-05-15T07:35:28.760Z,3.00
2019-05-15T07:37:58.661Z,3.00
2019-05-15T07:40:29.190Z,2.50
2019-05-15T07:42:58.541Z,2.50
2019-05-15T07:45:28.230Z,2.73
2019-05-15T07:47:58.473Z,2.87
2019-05-15T07:50:29.834Z,3.13
2019-05-15T07:52:59.048Z,3.23
2019-05-15T07:55:29.631Z,3.07
2019-05-15T07:57:59.130Z,3.23
2019-05-15T08:00:29.017Z,3.23
2019-05-15T08:02:58.615Z,2.90
2019-05-15T08:05:28.538Z,3.10
2019-05-15T08:07:58.185Z,2.83
2019-05-15T08:10:28.432Z,2.40
2019-05-15T08:12:58.092Z,2.10
2019-05-15T08:15:28.846Z,2.27
2019-05-15T08:18:05.465Z,2.10
2019-05-15T08:20:29.475Z,1.80
2019-05-15T08:22:58.336Z,2.10
2019-05-15T08:25:34.691Z,1.83
2019-05-15T08:27:58.778Z,2.30
2019-05-15T08:30:28.866Z,2.70
2019-05-15T08:32:58.855Z,2.70
2019-05-15T08:35:29.186Z,2.77
2019-05-15T08:37:58.103Z,2.53
2019-05-15T08:40:28.480Z,2.70
2019-05-15T08:43:01.911Z,2.23
2019-05-15T08:45:28.276Z,2.63
2019-05-15T08:47:58.592Z,2.90
2019-05-15T08:50:28.714Z,2.47
2019-05-15T08:52:57.903Z,2.50
2019-05-15T08:55:28.153Z,2.33
2019-05-15T08:58:07.186Z,2.97
2019-05-15T09:00:29.304Z,2.60
2019-05-15T09:02:58.170Z,2.60
2019-05-15T09:05:28.308Z,2.73
2019-05-15T09:07:58.061Z,2.60
2019-05-15T09:10:28.685Z,2.40
2019-05-15T09:12:58.638Z,2.53
2019-05-15T09:15:29.341Z,2.50
2019-05-15T09:18:11.313Z,2.70
2019-05-15T09:20:28.779Z,2.73
2019-05-15T09:22:58.295Z,2.50
2019-05-15T09:25:28.779Z,3.07
2019-05-15T09:27:57.939Z,2.80
2019-05-15T09:30:28.617Z,2.93
2019-05-15T09:32:58.876Z,2.87
2019-05-15T09:35:27.801Z,3.00
2019-05-15T09:37:58.332Z,2.87
2019-05-15T09:40:41.806Z,2.70
2019-05-15T09:42:57.807Z,2.73
2019-05-15T09:45:28.612Z,2.50
2019-05-15T09:47:58.979Z,2.43
2019-05-15T09:50:28.175Z,2.73
2019-05-15T09:52:58.820Z,2.60
2019-05-15T09:55:28.539Z,2.50
2019-05-15T09:57:59.032Z,3.00
2019-05-15T10:00:29.272Z,2.90
2019-05-15T10:02:57.746Z,3.00
2019-05-15T10:05:28.133Z,2.23
2019-05-15T10:07:56.713Z,2.40
2019-05-15T10:10:25.218Z,2.53
2019-05-15T10:12:53.927Z,2.60
2019-05-15T10:15:22.589Z,2.30
2019-05-15T10:17:51.389Z,2.63
2019-05-15T10:20:41.098Z,2.60
2019-05-15T10:23:09.633Z,2.80
2019-05-15T10:25:38.924Z,2.17
2019-05-15T10:28:09.746Z,2.13
2019-05-15T10:30:39.510Z,2.07
2019-05-15T10:33:08.506Z,1.90
2019-05-15T10:35:39.220Z,1.93
2019-05-15T10:38:08.875Z,2.97
2019-05-15T10:40:41.095Z,2.27
2019-05-15T10:43:09.315Z,2.73
2019-05-15T10:45:42.394Z,2.83
2019-05-15T10:48:09.330Z,2.40
2019-05-15T10:50:38.842Z,2.20
2019-05-15T10:53:11.013Z,2.20
2019-05-15T10:55:39.513Z,2.17
2019-05-15T10:58:14.094Z,2.60
2019-05-15T11:00:38.398Z,2.63
2019-05-15T11:03:08.842Z,2.47
2019-05-15T11:05:45.046Z,2.40
2019-05-15T11:08:08.339Z,2.13
2019-05-15T11:10:41.465Z,2.00
2019-05-15T11:13:09.028Z,2.43
2019-05-15T11:15:41.943Z,1.93
2019-05-15T11:18:09.292Z,2.20
2019-05-15T11:20:40.917Z,1.90
2019-05-15T11:23:10.210Z,2.13
2019-05-15T11:25:38.877Z,2.00
2019-05-15T11:28:08.222Z,2.37
2019-05-15T11:30:39.288Z,2.67
2019-05-15T11:33:09.577Z,2.40
2019-05-15T11:35:40.791Z,2.37
2019-05-15T11:38:10.045Z,2.23
2019-05-15T11:40:38.949Z,2.50
2019-05-15T11:43:08.577Z,2.37
2019-05-15T11:45:39.043Z,3.00
2019-05-15T11:48:09.110Z,2.30
2019-05-15T11:50:40.064Z,2.33
2019-05-15T11:53:08.718Z,2.23
2019-05-15T11:55:38.668Z,2.60
2019-05-15T11:58:09.305Z,2.40
2019-05-15T12:00:38.376Z,1.73
2019-05-15T12:03:09.003Z,2.23
2019-05-15T12:05:38.565Z,2.33
2019-05-15T12:08:29.354Z,2.10
2019-05-15T12:10:59.145Z,2.20
2019-05-15T12:13:27.956Z,2.50
2019-05-15T12:15:58.953Z,2.63
2019-05-15T12:18:28.455Z,2.20
2019-05-15T12:20:59.611Z,2.27
2019-05-15T12:23:29.137Z,2.70
2019-05-15T12:28:29.643Z,2.07
2019-05-15T12:30:59.724Z,2.10
2019-05-15T12:33:28.975Z,2.10
2019-05-15T12:35:57.796Z,1.93
2019-05-15T12:38:28.986Z,2.00
2019-05-15T13:00:57.935Z,1.93
2019-05-15T13:03:28.699Z,2.20
2019-05-15T13:05:56.701Z,2.37
2019-05-15T13:08:25.473Z,2.33
2019-05-15T13:10:53.553Z,2.20
2019-05-15T13:13:21.654Z,2.00
2019-05-15T13:15:49.801Z,2.10
2019-05-15T13:18:18.786Z,1.90
2019-05-15T13:20:49.057Z,2.30
2019-05-15T13:23:18.379Z,2.43
2019-05-15T13:25:48.333Z,2.30
2019-05-15T13:28:18.346Z,2.33
2019-05-15T13:30:48.923Z,1.80
2019-05-15T13:33:16.930Z,2.37
2019-05-15T13:35:48.473Z,2.23
2019-05-15T13:38:17.927Z,1.90
2019-05-15T13:40:48.022Z,2.43
2019-05-15T13:43:15.916Z,2.57
2019-05-15T13:45:44.338Z,2.10
2019-05-15T13:48:12.429Z,2.10
2019-05-15T13:50:40.856Z,2.20
2019-05-15T13:53:11.098Z,2.57
2019-05-15T13:55:42.772Z,2.23
2019-05-15T13:58:10.495Z,2.60
2019-05-15T14:00:39.474Z,2.23
2019-05-15T14:03:09.223Z,1.87
2019-05-15T14:05:38.478Z,2.20
2019-05-15T14:08:07.413Z,2.17
2019-05-15T14:10:38.268Z,1.93
2019-05-15T14:13:06.339Z,2.20
2019-05-15T14:15:35.046Z,2.30
2019-05-15T14:18:03.542Z,1.73
2019-05-15T14:20:32.022Z,2.10
2019-05-15T14:23:00.456Z,1.87
2019-05-15T14:25:29.910Z,1.90
2019-05-15T14:27:59.526Z,2.40
2019-05-15T14:30:29.262Z,2.03
2019-05-15T14:32:59.835Z,2.20
2019-05-15T14:35:27.810Z,2.30
2019-05-15T14:38:03.721Z,2.27
2019-05-15T14:40:26.802Z,2.10
2019-05-15T14:42:55.216Z,2.13
2019-05-15T14:45:24.155Z,2.13
2019-05-15T14:47:53.308Z,2.00
2019-05-15T14:50:21.895Z,1.80
2019-05-15T14:52:50.685Z,2.30
2019-05-15T14:55:19.200Z,2.40
2019-05-15T14:57:48.774Z,1.97
2019-05-15T15:00:20.324Z,2.67
2019-05-15T15:02:51.394Z,1.77
2019-05-15T15:05:22.519Z,2.10
2019-05-15T15:07:50.750Z,2.90
2019-05-15T15:10:20.322Z,2.27
2019-05-15T15:12:49.989Z,2.63
2019-05-15T15:15:19.513Z,2.30
2019-05-15T15:17:49.256Z,2.10
2019-05-15T15:20:18.200Z,2.00
2019-05-15T15:22:48.522Z,1.87
2019-05-15T15:25:17.179Z,2.07
2019-05-15T15:27:47.810Z,2.57
2019-05-15T15:30:18.772Z,1.97
2019-05-15T15:32:49.020Z,2.17
2019-05-15T15:35:17.030Z,2.10
2019-05-15T15:37:45.116Z,2.30
2019-05-15T15:40:13.610Z,1.90
2019-05-15T15:42:42.228Z,2.13
2019-05-15T15:45:12.667Z,2.50
2019-05-15T15:47:42.507Z,3.17
2019-05-15T15:50:11.721Z,2.40
2019-05-15T15:52:40.574Z,3.87
2019-05-15T15:55:10.101Z,3.43
2019-05-15T15:57:39.719Z,4.17
2019-05-15T16:00:10.536Z,3.17
2019-05-15T16:02:41.157Z,2.30
2019-05-15T16:05:13.049Z,1.80
2019-05-15T16:07:43.460Z,2.60
2019-05-15T16:10:11.973Z,2.70
2019-05-15T16:12:40.949Z,2.97
2019-05-15T16:15:09.905Z,1.93
2019-05-15T16:17:38.820Z,4.13
2019-05-15T16:20:09.078Z,1.90
2019-05-15T16:22:44.308Z,2.60
2019-05-15T16:25:13.282Z,3.00
2019-05-15T16:27:41.924Z,2.50
2019-05-15T16:30:10.421Z,2.23
2019-05-15T16:32:39.241Z,2.30
2019-05-15T16:35:09.370Z,2.03
2019-05-15T16:37:38.768Z,2.30
2019-05-15T16:40:09.233Z,1.90
2019-05-15T16:42:38.584Z,2.50
2019-05-15T16:45:09.311Z,2.13
2019-05-15T16:47:39.009Z,2.50
2019-05-15T16:50:08.940Z,2.30
2019-05-15T16:52:38.834Z,2.20
2019-05-15T16:55:09.741Z,2.27
2019-05-15T16:57:38.985Z,3.27
2019-05-15T17:00:09.699Z,2.30
2019-05-15T17:02:39.633Z,3.60
2019-05-15T17:05:08.409Z,2.30
2019-05-15T17:07:38.814Z,2.03
2019-05-15T17:10:08.630Z,2.27
2019-05-15T17:12:38.624Z,3.10
2019-05-15T17:15:08.584Z,3.40
2019-05-15T17:17:38.749Z,2.57
2019-05-15T17:20:10.866Z,2.20
2019-05-15T17:22:39.544Z,2.70
2019-05-15T17:25:09.404Z,2.20
2019-05-15T17:27:38.173Z,2.50
2019-05-15T17:30:09.262Z,2.33
2019-05-15T17:32:38.966Z,2.43
2019-05-15T17:35:09.891Z,2.23
2019-05-15T17:37:38.713Z,2.27
2019-05-15T17:40:08.531Z,1.90
2019-05-15T17:42:38.935Z,2.30
2019-05-15T17:45:09.133Z,2.83
2019-05-15T17:47:38.866Z,2.80
2019-05-15T17:50:08.464Z,2.37
2019-05-15T17:52:38.771Z,2.10
2019-05-15T17:55:07.778Z,1.80
2019-05-15T17:57:38.816Z,2.10
2019-05-15T18:00:12.797Z,2.07
2019-05-15T18:02:42.211Z,2.53
2019-05-15T18:05:11.580Z,2.67
2019-05-15T18:07:40.226Z,2.60
2019-05-15T18:10:09.567Z,2.80
2019-05-15T18:12:38.803Z,2.40
2019-05-15T18:15:09.111Z,3.00
2019-05-15T18:17:39.284Z,11.60
2019-05-15T18:20:09.936Z,4.90
2019-05-15T18:22:38.498Z,6.27
2019-05-15T18:25:09.105Z,7.13
2019-05-15T18:27:38.840Z,3.57
2019-05-15T18:30:09.161Z,3.37
2019-05-15T18:32:39.187Z,2.50
2019-05-15T18:35:08.532Z,3.80
2019-05-15T18:37:39.417Z,3.00
2019-05-15T18:40:09.811Z,2.50
2019-05-15T18:42:38.962Z,2.70
2019-05-15T18:45:09.124Z,2.30
2019-05-15T18:47:38.972Z,3.10
2019-05-15T18:50:13.050Z,2.57
2019-05-15T18:52:39.104Z,2.90
2019-05-15T18:55:08.173Z,2.80
2019-05-15T18:57:38.530Z,2.40
2019-05-15T19:00:08.811Z,3.00
2019-05-15T19:02:39.205Z,2.63
2019-05-15T19:05:08.532Z,2.83
2019-05-15T19:07:38.282Z,3.20
2019-05-15T19:10:10.688Z,2.80
2019-05-15T19:12:39.152Z,2.57
2019-05-15T19:15:09.285Z,2.80
2019-05-15T19:17:38.855Z,2.20
2019-05-15T19:20:08.681Z,2.83
2019-05-15T19:22:40.325Z,2.73
2019-05-15T19:25:08.924Z,2.97
2019-05-15T19:27:39.300Z,2.30
2019-05-15T19:30:14.390Z,2.50
2019-05-15T19:32:51.955Z,2.37
2019-05-15T19:35:19.117Z,2.20
2019-05-15T19:41:06.597Z,2.30
2019-05-15T19:53:37.248Z,1.70
2019-05-15T19:59:08.927Z,1.80
2019-05-15T20:01:38.381Z,1.53
2019-05-15T20:04:08.038Z,1.67
2019-05-15T20:06:38.535Z,2.00
2019-05-15T20:09:07.755Z,2.13
2019-05-15T20:11:38.336Z,1.67
2019-05-15T20:14:06.691Z,2.10
2019-05-15T20:16:35.198Z,1.60
2019-05-15T20:19:03.638Z,1.60
2019-05-15T20:21:31.744Z,1.63
2019-05-15T20:24:00.022Z,1.70
2019-05-15T20:27:03.923Z,1.60
2019-05-15T20:29:28.951Z,2.13
2019-05-15T20:31:58.657Z,2.60
2019-05-15T20:34:28.742Z,2.53
2019-05-15T20:36:58.710Z,1.90
2019-05-15T20:39:27.353Z,1.90
2019-05-15T20:41:58.111Z,2.13
2019-05-15T20:44:26.072Z,2.00
2019-05-15T20:46:55.699Z,2.30
2019-05-15T20:49:24.466Z,1.90
2019-05-15T20:51:53.859Z,1.80
2019-05-15T20:54:22.582Z,2.13
2019-05-15T20:56:51.161Z,2.30
2019-05-15T20:59:19.661Z,1.90
2019-05-15T21:01:50.641Z,2.60
2019-05-15T21:04:20.514Z,2.03
2019-05-15T21:06:49.308Z,1.77
2019-05-15T21:09:17.926Z,1.70
2019-05-15T21:11:48.386Z,2.00
2019-05-15T21:14:17.350Z,1.83
2019-05-15T21:16:45.759Z,2.20
2019-05-15T21:19:14.242Z,2.00
2019-05-15T21:21:43.278Z,1.93
2019-05-15T21:24:12.903Z,2.60
2019-05-15T21:26:42.544Z,2.03
2019-05-15T21:29:11.028Z,2.23
2019-05-15T21:31:40.026Z,2.00
2019-05-15T21:34:08.779Z,2.30
2019-05-15T21:36:39.391Z,2.40
2019-05-15T21:39:07.502Z,2.07
2019-05-15T21:41:38.491Z,1.90
2019-05-15T21:44:08.497Z,1.67
2019-05-15T21:46:36.868Z,2.40
2019-05-15T21:49:05.293Z,2.30
2019-05-15T21:51:34.734Z,2.20
2019-05-15T21:54:03.249Z,2.10
2019-05-15T21:56:31.672Z,1.93
2019-05-15T21:59:01.218Z,2.27
2019-05-15T22:01:29.904Z,2.10
2019-05-15T22:03:58.893Z,2.10
2019-05-15T22:06:29.261Z,2.30
2019-05-15T22:08:58.385Z,1.80
2019-05-15T22:11:29.648Z,2.00
2019-05-15T22:13:58.757Z,1.60
2019-05-15T22:16:28.854Z,2.10
2019-05-15T22:18:58.269Z,1.93
2019-05-15T22:21:27.093Z,1.90
2019-05-15T22:23:59.873Z,2.00
2019-05-15T22:26:29.070Z,2.23
2019-05-15T22:28:58.410Z,1.60
2019-05-15T22:31:27.551Z,2.13
2019-05-15T22:33:58.391Z,1.63
2019-05-15T22:36:28.108Z,2.00
2019-05-15T22:38:59.404Z,2.07
2019-05-15T22:41:28.462Z,2.20
2019-05-15T22:43:57.279Z,2.20
2019-05-15T22:46:25.774Z,2.27
2019-05-15T22:48:54.366Z,2.40
2019-05-15T22:51:22.780Z,2.40
2019-05-15T22:53:51.206Z,2.47
2019-05-15T22:56:19.770Z,2.40
2019-05-15T22:58:48.229Z,2.53
2019-05-15T23:01:18.708Z,2.70
2019-05-15T23:03:48.050Z,2.50
2019-05-15T23:06:17.817Z,2.57
2019-05-15T23:08:48.927Z,2.43
2019-05-15T23:11:18.288Z,2.93
2019-05-15T23:13:48.323Z,2.10
2019-05-15T23:16:18.191Z,2.10
2019-05-15T23:18:48.509Z,2.50
2019-05-15T23:21:18.329Z,1.93
2019-05-15T23:23:48.774Z,2.47
2019-05-15T23:26:17.385Z,2.40
2019-05-15T23:28:47.937Z,2.23
2019-05-15T23:31:15.952Z,2.50
2019-05-15T23:33:44.377Z,2.20
2019-05-15T23:36:13.354Z,2.33
2019-05-15T23:38:42.149Z,2.40
2019-05-15T23:41:10.836Z,2.20
2019-05-15T23:43:39.268Z,2.30
2019-05-15T23:46:08.122Z,2.33
2019-05-15T23:48:38.161Z,2.60
2019-05-15T23:51:08.567Z,2.67
2019-05-15T23:53:37.534Z,2.70
2019-05-15T23:56:06.192Z,2.83
2019-05-15T23:58:34.613Z,3.47
